createdAt,value
2022-10-22T00:00:56.000Z,1013.91
2022-10-22T00:01:56.000Z,1013.82
2022-10-22T00:02:56.000Z,1013.76
2022-10-22T00:03:56.000Z,1013.72
2022-10-22T00:04:56.000Z,1013.74
2022-10-22T00:05:56.000Z,1013.71
2022-10-22T00:06:56.000Z,1013.70
2022-10-22T00:07:56.000Z,1013.77
2022-10-22T00:08:56.000Z,1013.77
2022-10-22T00:09:56.000Z,1013.94
2022-10-22T00:10:56.000Z,1014.04
2022-10-22T00:11:56.000Z,1014.03
2022-10-22T00:12:56.000Z,1014.06
2022-10-22T00:13:56.000Z,1014.01
2022-10-22T00:14:56.000Z,1014.00
2022-10-22T00:15:57.000Z,1013.96
2022-10-22T00:16:59.000Z,1013.99
2022-10-22T00:17:56.000Z,1014.07
2022-10-22T00:18:56.000Z,1014.11
2022-10-22T00:19:56.000Z,1014.10
2022-10-22T00:20:56.000Z,1014.15
2022-10-22T00:21:56.000Z,1014.10
2022-10-22T00:22:56.000Z,1014.10
2022-10-22T00:23:56.000Z,1014.17
2022-10-22T00:24:56.000Z,1014.19
2022-10-22T00:25:56.000Z,1014.24
2022-10-22T00:26:56.000Z,1014.21
2022-10-22T00:27:56.000Z,1014.16
2022-10-22T00:28:57.000Z,1014.21
2022-10-22T00:29:56.000Z,1014.26
2022-10-22T00:30:58.000Z,1014.35
2022-10-22T00:31:56.000Z,1014.41
2022-10-22T00:32:56.000Z,1014.45
2022-10-22T00:33:56.000Z,1014.52
2022-10-22T00:34:56.000Z,1014.55
2022-10-22T00:35:57.000Z,1014.63
2022-10-22T00:36:57.000Z,1014.67
2022-10-22T00:37:56.000Z,1014.67
2022-10-22T00:38:56.000Z,1014.67
2022-10-22T00:39:56.000Z,1014.71
2022-10-22T00:40:57.000Z,1014.69
2022-10-22T00:41:57.000Z,1014.68
2022-10-22T00:42:56.000Z,1014.68
2022-10-22T00:44:01.000Z,1014.64
2022-10-22T00:45:17.000Z,1014.68
2022-10-22T00:45:57.000Z,1014.71
2022-10-22T00:46:57.000Z,1014.69
2022-10-22T00:48:03.000Z,1014.71
2022-10-22T00:49:00.000Z,1014.68
2022-10-22T00:49:58.000Z,1014.67
2022-10-22T00:51:03.000Z,1014.64
2022-10-22T00:51:57.000Z,1014.64
2022-10-22T00:52:57.000Z,1014.62
2022-10-22T00:54:02.000Z,1014.63
2022-10-22T00:54:58.000Z,1014.61
2022-10-22T00:55:57.000Z,1014.54
2022-10-22T00:56:57.000Z,1014.50
2022-10-22T00:57:58.000Z,1014.47
2022-10-22T00:59:00.000Z,1014.49
2022-10-22T00:59:56.000Z,1014.44
2022-10-22T01:00:57.000Z,1014.41
2022-10-22T01:01:57.000Z,1014.43
2022-10-22T01:02:57.000Z,1014.41
2022-10-22T01:03:57.000Z,1014.40
2022-10-22T01:04:56.000Z,1014.39
2022-10-22T01:06:00.000Z,1014.33
2022-10-22T01:06:56.000Z,1014.40
2022-10-22T01:07:57.000Z,1014.41
2022-10-22T01:09:28.000Z,1014.37
2022-10-22T01:10:17.000Z,1014.40
2022-10-22T01:11:09.000Z,1014.34
2022-10-22T01:12:06.000Z,1014.31
2022-10-22T01:13:19.000Z,1014.30
2022-10-22T01:14:10.000Z,1014.24
2022-10-22T01:15:19.000Z,1014.27
2022-10-22T01:16:18.000Z,1014.29
2022-10-22T01:17:06.000Z,1014.30
2022-10-22T01:18:19.000Z,1014.31
2022-10-22T01:19:17.000Z,1014.36
2022-10-22T01:20:17.000Z,1014.34
2022-10-22T01:21:06.000Z,1014.35
2022-10-22T01:22:19.000Z,1014.35
2022-10-22T01:23:30.000Z,1014.37
2022-10-22T01:24:11.000Z,1014.38
2022-10-22T01:25:16.000Z,1014.37
2022-10-22T01:26:14.000Z,1014.38
2022-10-22T01:27:16.000Z,1014.41
2022-10-22T01:28:19.000Z,1014.38
2022-10-22T01:29:07.000Z,1014.42
2022-10-22T01:30:06.000Z,1014.42
2022-10-22T01:31:00.000Z,1014.46
2022-10-22T01:32:01.000Z,1014.50
2022-10-22T01:33:03.000Z,1014.52
2022-10-22T01:33:59.000Z,1014.59
2022-10-22T01:35:07.000Z,1014.59
2022-10-22T01:35:59.000Z,1014.63
2022-10-22T01:36:58.000Z,1014.62
2022-10-22T01:38:00.000Z,1014.63
2022-10-22T01:38:59.000Z,1014.72
2022-10-22T01:40:00.000Z,1014.75
2022-10-22T01:40:58.000Z,1014.80
2022-10-22T01:41:57.000Z,1014.81
2022-10-22T01:43:00.000Z,1014.87
2022-10-22T01:43:57.000Z,1014.84
2022-10-22T01:44:57.000Z,1014.77
2022-10-22T01:46:00.000Z,1014.86
2022-10-22T01:47:12.000Z,1014.83
2022-10-22T01:48:07.000Z,1014.86
2022-10-22T01:49:09.000Z,1014.88
2022-10-22T01:50:09.000Z,1014.90
2022-10-22T01:51:20.000Z,1014.89
2022-10-22T01:52:26.000Z,1014.85
2022-10-22T01:53:11.000Z,1014.83
2022-10-22T01:54:10.000Z,1014.83
2022-10-22T01:55:17.000Z,1014.86
2022-10-22T01:56:30.000Z,1014.81
2022-10-22T01:57:09.000Z,1014.88
2022-10-22T01:58:20.000Z,1014.92
2022-10-22T01:59:06.000Z,1014.97
2022-10-22T02:00:05.000Z,1014.94
2022-10-22T02:01:05.000Z,1014.92
2022-10-22T02:02:11.000Z,1014.98
2022-10-22T02:03:11.000Z,1014.92
2022-10-22T02:04:10.000Z,1014.90
2022-10-22T02:05:07.000Z,1014.88
2022-10-22T02:06:01.000Z,1014.87
2022-10-22T02:07:00.000Z,1014.87
2022-10-22T02:08:05.000Z,1014.81
2022-10-22T02:08:58.000Z,1014.85
2022-10-22T02:09:58.000Z,1014.82
2022-10-22T02:10:58.000Z,1014.82
2022-10-22T02:11:59.000Z,1014.84
2022-10-22T02:12:59.000Z,1014.77
2022-10-22T02:14:01.000Z,1014.79
2022-10-22T02:14:59.000Z,1014.74
2022-10-22T02:15:58.000Z,1014.74
2022-10-22T02:16:59.000Z,1014.73
2022-10-22T02:17:58.000Z,1014.65
2022-10-22T02:19:01.000Z,1014.67
2022-10-22T02:20:06.000Z,1014.63
2022-10-22T02:20:58.000Z,1014.58
2022-10-22T02:21:56.000Z,1014.48
2022-10-22T02:22:58.000Z,1014.48
2022-10-22T02:23:57.000Z,1014.48
2022-10-22T02:24:57.000Z,1014.42
2022-10-22T02:26:06.000Z,1014.37
2022-10-22T02:27:06.000Z,1014.37
2022-10-22T02:28:17.000Z,1014.27
2022-10-22T02:29:17.000Z,1014.24
2022-10-22T02:30:04.000Z,1014.23
2022-10-22T02:31:04.000Z,1014.16
2022-10-22T02:32:00.000Z,1014.17
2022-10-22T02:33:17.000Z,1014.11
2022-10-22T02:34:01.000Z,1014.10
2022-10-22T02:34:58.000Z,1014.05
2022-10-22T02:35:58.000Z,1014.01
2022-10-22T02:36:59.000Z,1013.98
2022-10-22T02:37:57.000Z,1013.91
2022-10-22T02:38:57.000Z,1013.89
2022-10-22T02:39:56.000Z,1013.84
2022-10-22T02:40:57.000Z,1013.79
2022-10-22T02:41:56.000Z,1013.72
2022-10-22T02:42:56.000Z,1013.70
2022-10-22T02:43:56.000Z,1013.70
2022-10-22T02:44:56.000Z,1013.64
2022-10-22T02:45:56.000Z,1013.61
2022-10-22T02:46:57.000Z,1013.61
2022-10-22T02:47:56.000Z,1013.62
2022-10-22T02:48:56.000Z,1013.60
2022-10-22T02:49:56.000Z,1013.62
2022-10-22T02:50:56.000Z,1013.62
2022-10-22T02:51:56.000Z,1013.63
2022-10-22T02:52:56.000Z,1013.65
2022-10-22T02:53:56.000Z,1013.68
2022-10-22T02:54:56.000Z,1013.64
2022-10-22T02:55:57.000Z,1013.66
2022-10-22T02:56:56.000Z,1013.64
2022-10-22T02:57:56.000Z,1013.64
2022-10-22T02:58:56.000Z,1013.68
2022-10-22T02:59:56.000Z,1013.71
2022-10-22T03:00:57.000Z,1013.74
2022-10-22T03:01:57.000Z,1013.82
2022-10-22T03:02:57.000Z,1013.89
2022-10-22T03:03:57.000Z,1013.89
2022-10-22T03:04:57.000Z,1013.90
2022-10-22T03:05:57.000Z,1013.93
2022-10-22T03:06:57.000Z,1013.92
2022-10-22T03:07:57.000Z,1013.96
2022-10-22T03:08:57.000Z,1013.91
2022-10-22T03:09:57.000Z,1013.94
2022-10-22T03:10:57.000Z,1013.95
2022-10-22T03:11:56.000Z,1013.95
2022-10-22T03:12:57.000Z,1013.92
2022-10-22T03:13:57.000Z,1013.88
2022-10-22T03:14:57.000Z,1013.89
2022-10-22T03:15:57.000Z,1013.90
2022-10-22T03:16:57.000Z,1013.87
2022-10-22T03:17:57.000Z,1013.84
2022-10-22T03:18:57.000Z,1013.79
2022-10-22T03:19:57.000Z,1013.80
2022-10-22T03:21:02.000Z,1013.80
2022-10-22T03:22:05.000Z,1013.82
2022-10-22T03:22:57.000Z,1013.84
2022-10-22T03:23:59.000Z,1013.84
2022-10-22T03:25:01.000Z,1013.81
2022-10-22T03:25:58.000Z,1013.83
2022-10-22T03:26:56.000Z,1013.86
2022-10-22T03:28:02.000Z,1013.87
2022-10-22T03:28:57.000Z,1013.93
2022-10-22T03:29:58.000Z,1013.92
2022-10-22T03:30:56.000Z,1013.91
2022-10-22T03:31:56.000Z,1013.90
2022-10-22T03:32:56.000Z,1013.91
2022-10-22T03:33:56.000Z,1013.96
2022-10-22T03:34:56.000Z,1014.11
2022-10-22T03:35:57.000Z,1014.31
2022-10-22T03:36:58.000Z,1014.40
2022-10-22T03:37:59.000Z,1014.48
2022-10-22T03:38:58.000Z,1014.52
2022-10-22T03:39:57.000Z,1014.54
2022-10-22T03:40:57.000Z,1014.58
2022-10-22T03:41:57.000Z,1014.57
2022-10-22T03:42:57.000Z,1014.62
2022-10-22T03:43:59.000Z,1014.61
2022-10-22T03:44:56.000Z,1014.63
2022-10-22T03:45:56.000Z,1014.64
2022-10-22T03:46:56.000Z,1014.61
2022-10-22T03:47:56.000Z,1014.65
2022-10-22T03:48:56.000Z,1014.70
2022-10-22T03:49:56.000Z,1014.66
2022-10-22T03:50:57.000Z,1014.71
2022-10-22T03:52:03.000Z,1014.70
2022-10-22T03:52:57.000Z,1014.77
2022-10-22T03:53:56.000Z,1014.79
2022-10-22T03:54:58.000Z,1014.80
2022-10-22T03:55:56.000Z,1014.84
2022-10-22T03:56:56.000Z,1014.82
2022-10-22T03:57:56.000Z,1014.87
2022-10-22T03:58:58.000Z,1014.92
2022-10-22T03:59:56.000Z,1014.99
2022-10-22T04:01:03.000Z,1014.99
2022-10-22T04:01:56.000Z,1015.01
2022-10-22T04:02:56.000Z,1015.04
2022-10-22T04:03:57.000Z,1015.03
2022-10-22T04:04:56.000Z,1015.02
2022-10-22T04:06:03.000Z,1015.01
2022-10-22T04:06:56.000Z,1014.99
2022-10-22T04:07:56.000Z,1014.97
2022-10-22T04:08:57.000Z,1014.98
2022-10-22T04:09:56.000Z,1014.95
2022-10-22T04:10:56.000Z,1014.97
2022-10-22T04:11:57.000Z,1015.00
2022-10-22T04:12:56.000Z,1015.07
2022-10-22T04:13:56.000Z,1015.07
2022-10-22T04:14:56.000Z,1015.15
2022-10-22T04:16:06.000Z,1015.23
2022-10-22T04:16:56.000Z,1015.28
2022-10-22T04:17:56.000Z,1015.30
2022-10-22T04:18:57.000Z,1015.34
2022-10-22T04:19:56.000Z,1015.35
2022-10-22T04:20:56.000Z,1015.40
2022-10-22T04:21:57.000Z,1015.49
2022-10-22T04:22:56.000Z,1015.52
2022-10-22T04:23:57.000Z,1015.60
2022-10-22T04:24:56.000Z,1015.63
2022-10-22T04:26:02.000Z,1015.63
2022-10-22T04:26:57.000Z,1015.65
2022-10-22T04:27:56.000Z,1015.68
2022-10-22T04:28:56.000Z,1015.66
2022-10-22T04:29:56.000Z,1015.64
2022-10-22T04:30:56.000Z,1015.68
2022-10-22T04:31:56.000Z,1015.67
2022-10-22T04:32:57.000Z,1015.66
2022-10-22T04:33:58.000Z,1015.67
2022-10-22T04:34:57.000Z,1015.72
2022-10-22T04:35:57.000Z,1015.74
2022-10-22T04:36:57.000Z,1015.76
2022-10-22T04:37:57.000Z,1015.70
2022-10-22T04:38:59.000Z,1015.74
2022-10-22T04:39:57.000Z,1015.71
2022-10-22T04:40:57.000Z,1015.73
2022-10-22T04:41:57.000Z,1015.69
2022-10-22T04:42:57.000Z,1015.66
2022-10-22T04:43:57.000Z,1015.66
2022-10-22T04:44:57.000Z,1015.64
2022-10-22T04:45:59.000Z,1015.69
2022-10-22T04:46:57.000Z,1015.64
2022-10-22T04:47:57.000Z,1015.66
2022-10-22T04:48:57.000Z,1015.66
2022-10-22T04:49:57.000Z,1015.60
2022-10-22T04:50:57.000Z,1015.61
2022-10-22T04:51:57.000Z,1015.59
2022-10-22T04:52:57.000Z,1015.59
2022-10-22T04:53:57.000Z,1015.60
2022-10-22T04:54:57.000Z,1015.63
2022-10-22T04:56:05.000Z,1015.67
2022-10-22T04:56:57.000Z,1015.67
2022-10-22T04:57:57.000Z,1015.68
2022-10-22T04:58:59.000Z,1015.68
2022-10-22T04:59:57.000Z,1015.76
2022-10-22T05:00:57.000Z,1015.69
2022-10-22T05:01:57.000Z,1015.75
2022-10-22T05:02:57.000Z,1015.72
2022-10-22T05:03:59.000Z,1015.75
2022-10-22T05:04:57.000Z,1015.74
2022-10-22T05:06:00.000Z,1015.80
2022-10-22T05:06:57.000Z,1015.78
2022-10-22T05:07:56.000Z,1015.77
2022-10-22T05:08:59.000Z,1015.83
2022-10-22T05:09:57.000Z,1015.78
2022-10-22T05:10:57.000Z,1015.85
2022-10-22T05:11:57.000Z,1015.88
2022-10-22T05:12:57.000Z,1015.90
2022-10-22T05:13:58.000Z,1015.89
2022-10-22T05:14:57.000Z,1015.89
2022-10-22T05:16:00.000Z,1015.86
2022-10-22T05:16:57.000Z,1015.84
2022-10-22T05:17:56.000Z,1015.86
2022-10-22T05:18:58.000Z,1015.88
2022-10-22T05:19:56.000Z,1015.87
2022-10-22T05:20:56.000Z,1015.88
2022-10-22T05:22:01.000Z,1015.88
2022-10-22T05:22:56.000Z,1015.90
2022-10-22T05:23:58.000Z,1015.85
2022-10-22T05:24:56.000Z,1015.89
2022-10-22T05:26:01.000Z,1015.89
2022-10-22T05:26:58.000Z,1015.95
2022-10-22T05:27:56.000Z,1015.94
2022-10-22T05:28:56.000Z,1016.02
2022-10-22T05:29:56.000Z,1016.04
2022-10-22T05:30:59.000Z,1016.07
2022-10-22T05:31:56.000Z,1016.10
2022-10-22T05:32:57.000Z,1016.10
2022-10-22T05:33:56.000Z,1016.11
2022-10-22T05:34:56.000Z,1016.10
2022-10-22T05:35:56.000Z,1016.14
2022-10-22T05:36:56.000Z,1016.13
2022-10-22T05:37:56.000Z,1016.12
2022-10-22T05:38:56.000Z,1016.10
2022-10-22T05:39:56.000Z,1016.13
2022-10-22T05:41:19.000Z,1016.06
2022-10-22T05:41:56.000Z,1016.09
2022-10-22T05:42:56.000Z,1016.06
2022-10-22T05:43:57.000Z,1016.11
2022-10-22T05:44:56.000Z,1016.12
2022-10-22T05:46:01.000Z,1016.14
2022-10-22T05:46:56.000Z,1016.15
2022-10-22T05:47:56.000Z,1016.17
2022-10-22T05:48:58.000Z,1016.22
2022-10-22T05:49:56.000Z,1016.23
2022-10-22T05:51:00.000Z,1016.28
2022-10-22T05:51:56.000Z,1016.28
2022-10-22T05:52:56.000Z,1016.25
2022-10-22T05:53:59.000Z,1016.28
2022-10-22T05:54:56.000Z,1016.29
2022-10-22T05:56:02.000Z,1016.30
2022-10-22T05:56:56.000Z,1016.32
2022-10-22T05:57:56.000Z,1016.34
2022-10-22T05:58:57.000Z,1016.35
2022-10-22T05:59:56.000Z,1016.33
2022-10-22T06:01:06.000Z,1016.33
2022-10-22T06:01:56.000Z,1016.30
2022-10-22T06:02:56.000Z,1016.32
2022-10-22T06:03:58.000Z,1016.33
2022-10-22T06:04:56.000Z,1016.33
2022-10-22T06:06:01.000Z,1016.32
2022-10-22T06:06:56.000Z,1016.36
2022-10-22T06:07:56.000Z,1016.34
2022-10-22T06:09:04.000Z,1016.35
2022-10-22T06:09:57.000Z,1016.40
2022-10-22T06:10:56.000Z,1016.39
2022-10-22T06:11:57.000Z,1016.43
2022-10-22T06:12:56.000Z,1016.46
2022-10-22T06:13:56.000Z,1016.47
2022-10-22T06:14:56.000Z,1016.53
2022-10-22T06:15:56.000Z,1016.50
2022-10-22T06:16:57.000Z,1016.53
2022-10-22T06:17:56.000Z,1016.54
2022-10-22T06:19:00.000Z,1016.61
2022-10-22T06:19:56.000Z,1016.58
2022-10-22T06:21:05.000Z,1016.61
2022-10-22T06:21:56.000Z,1016.65
2022-10-22T06:22:56.000Z,1016.65
2022-10-22T06:23:58.000Z,1016.67
2022-10-22T06:24:56.000Z,1016.69
2022-10-22T06:25:58.000Z,1016.73
2022-10-22T06:26:56.000Z,1016.73
2022-10-22T06:27:56.000Z,1016.73
2022-10-22T06:28:57.000Z,1016.76
2022-10-22T06:29:56.000Z,1016.78
2022-10-22T06:30:58.000Z,1016.77
2022-10-22T06:31:56.000Z,1016.78
2022-10-22T06:32:56.000Z,1016.81
2022-10-22T06:33:56.000Z,1016.76
2022-10-22T06:34:56.000Z,1016.83
2022-10-22T06:36:07.000Z,1016.80
2022-10-22T06:36:57.000Z,1016.81
2022-10-22T06:37:56.000Z,1016.82
2022-10-22T06:38:56.000Z,1016.83
2022-10-22T06:39:56.000Z,1016.85
2022-10-22T06:41:02.000Z,1016.85
2022-10-22T06:41:56.000Z,1016.87
2022-10-22T06:42:58.000Z,1016.87
2022-10-22T06:43:57.000Z,1016.92
2022-10-22T06:44:56.000Z,1016.89
2022-10-22T06:46:03.000Z,1016.91
2022-10-22T06:46:57.000Z,1016.93
2022-10-22T06:47:56.000Z,1016.96
2022-10-22T06:48:59.000Z,1016.98
2022-10-22T06:49:56.000Z,1016.99
2022-10-22T06:51:04.000Z,1017.02
2022-10-22T06:51:57.000Z,1017.06
2022-10-22T06:52:56.000Z,1017.06
2022-10-22T06:53:57.000Z,1017.09
2022-10-22T06:54:56.000Z,1017.13
2022-10-22T06:55:56.000Z,1017.13
2022-10-22T06:56:56.000Z,1017.12
2022-10-22T06:57:57.000Z,1017.10
2022-10-22T06:58:57.000Z,1017.19
2022-10-22T06:59:56.000Z,1017.15
2022-10-22T07:01:01.000Z,1017.15
2022-10-22T07:01:56.000Z,1017.17
2022-10-22T07:02:56.000Z,1017.22
2022-10-22T07:03:57.000Z,1017.27
2022-10-22T07:04:57.000Z,1017.27
2022-10-22T07:06:01.000Z,1017.30
2022-10-22T07:06:57.000Z,1017.32
2022-10-22T07:07:56.000Z,1017.29
2022-10-22T07:08:58.000Z,1017.30
2022-10-22T07:09:56.000Z,1017.32
2022-10-22T07:11:07.000Z,1017.32
2022-10-22T07:11:56.000Z,1017.34
2022-10-22T07:12:57.000Z,1017.35
2022-10-22T07:13:58.000Z,1017.42
2022-10-22T07:14:56.000Z,1017.39
2022-10-22T07:15:57.000Z,1017.41
2022-10-22T07:16:56.000Z,1017.42
2022-10-22T07:17:57.000Z,1017.44
2022-10-22T07:18:57.000Z,1017.47
2022-10-22T07:19:56.000Z,1017.47
2022-10-22T07:20:57.000Z,1017.50
2022-10-22T07:21:57.000Z,1017.47
2022-10-22T07:22:56.000Z,1017.50
2022-10-22T07:23:57.000Z,1017.47
2022-10-22T07:24:56.000Z,1017.52
2022-10-22T07:25:57.000Z,1017.56
2022-10-22T07:26:57.000Z,1017.56
2022-10-22T07:27:56.000Z,1017.59
2022-10-22T07:29:00.000Z,1017.60
2022-10-22T07:29:59.000Z,1017.58
2022-10-22T07:30:56.000Z,1017.60
2022-10-22T07:31:56.000Z,1017.60
2022-10-22T07:32:56.000Z,1017.62
2022-10-22T07:33:57.000Z,1017.57
2022-10-22T07:34:56.000Z,1017.63
2022-10-22T07:36:01.000Z,1017.63
2022-10-22T07:36:57.000Z,1017.63
2022-10-22T07:37:56.000Z,1017.60
2022-10-22T07:38:58.000Z,1017.59
2022-10-22T07:39:56.000Z,1017.55
2022-10-22T07:40:57.000Z,1017.59
2022-10-22T07:41:56.000Z,1017.56
2022-10-22T07:42:57.000Z,1017.48
2022-10-22T07:43:57.000Z,1017.51
2022-10-22T07:44:56.000Z,1017.46
2022-10-22T07:45:58.000Z,1017.53
2022-10-22T07:46:56.000Z,1017.52
2022-10-22T07:47:58.000Z,1017.51
2022-10-22T07:48:57.000Z,1017.52
2022-10-22T07:49:56.000Z,1017.53
2022-10-22T07:50:57.000Z,1017.55
2022-10-22T07:51:57.000Z,1017.54
2022-10-22T07:52:57.000Z,1017.56
2022-10-22T07:53:57.000Z,1017.60
2022-10-22T07:54:57.000Z,1017.58
2022-10-22T07:55:57.000Z,1017.60
2022-10-22T07:56:56.000Z,1017.60
2022-10-22T07:57:57.000Z,1017.58
2022-10-22T07:58:56.000Z,1017.63
2022-10-22T07:59:57.000Z,1017.66
2022-10-22T08:00:58.000Z,1017.64
2022-10-22T08:01:56.000Z,1017.68
2022-10-22T08:02:57.000Z,1017.65
2022-10-22T08:03:56.000Z,1017.70
2022-10-22T08:04:56.000Z,1017.71
2022-10-22T08:05:57.000Z,1017.68
2022-10-22T08:06:57.000Z,1017.70
2022-10-22T08:07:56.000Z,1017.68
2022-10-22T08:08:56.000Z,1017.70
2022-10-22T08:09:56.000Z,1017.69
2022-10-22T08:10:59.000Z,1017.71
2022-10-22T08:11:56.000Z,1017.76
2022-10-22T08:12:57.000Z,1017.73
2022-10-22T08:13:56.000Z,1017.68
2022-10-22T08:14:57.000Z,1017.72
2022-10-22T08:16:00.000Z,1017.71
2022-10-22T08:16:57.000Z,1017.69
2022-10-22T08:17:56.000Z,1017.70
2022-10-22T08:18:56.000Z,1017.73
2022-10-22T08:19:56.000Z,1017.69
2022-10-22T08:20:57.000Z,1017.70
2022-10-22T08:21:57.000Z,1017.69
2022-10-22T08:22:57.000Z,1017.72
2022-10-22T08:23:56.000Z,1017.73
2022-10-22T08:24:57.000Z,1017.72
2022-10-22T08:25:57.000Z,1017.75
2022-10-22T08:26:57.000Z,1017.74
2022-10-22T08:27:57.000Z,1017.76
2022-10-22T08:28:57.000Z,1017.79
2022-10-22T08:29:56.000Z,1017.78
2022-10-22T08:30:57.000Z,1017.81
2022-10-22T08:31:56.000Z,1017.80
2022-10-22T08:32:56.000Z,1017.84
2022-10-22T08:33:56.000Z,1017.84
2022-10-22T08:34:56.000Z,1017.84
2022-10-22T08:35:56.000Z,1017.86
2022-10-22T08:36:56.000Z,1017.84
2022-10-22T08:37:56.000Z,1017.87
2022-10-22T08:38:56.000Z,1017.89
2022-10-22T08:39:57.000Z,1017.84
2022-10-22T08:41:06.000Z,1017.86
2022-10-22T08:42:17.000Z,1017.91
2022-10-22T08:43:20.000Z,1017.89
2022-10-22T08:44:07.000Z,1017.92
2022-10-22T08:45:17.000Z,1017.89
2022-10-22T08:46:08.000Z,1017.89
2022-10-22T08:47:13.000Z,1017.89
2022-10-22T08:48:21.000Z,1017.89
2022-10-22T08:49:00.000Z,1017.85
2022-10-22T08:49:58.000Z,1017.92
2022-10-22T08:50:57.000Z,1017.90
2022-10-22T08:51:58.000Z,1017.90
2022-10-22T08:52:59.000Z,1017.88
2022-10-22T08:54:17.000Z,1017.88
2022-10-22T08:55:01.000Z,1017.93
2022-10-22T08:55:57.000Z,1017.94
2022-10-22T08:57:22.000Z,1017.97
2022-10-22T08:58:07.000Z,1018.00
2022-10-22T08:59:04.000Z,1018.01
2022-10-22T09:00:09.000Z,1018.07
2022-10-22T09:01:09.000Z,1018.09
2022-10-22T09:01:57.000Z,1018.08
2022-10-22T09:03:07.000Z,1018.11
2022-10-22T09:04:07.000Z,1018.17
2022-10-22T09:05:13.000Z,1018.15
2022-10-22T09:06:07.000Z,1018.16
2022-10-22T09:06:59.000Z,1018.19
2022-10-22T09:07:56.000Z,1018.15
2022-10-22T09:08:59.000Z,1018.13
2022-10-22T09:10:00.000Z,1018.12
2022-10-22T09:11:14.000Z,1018.15
2022-10-22T09:11:59.000Z,1018.12
2022-10-22T09:12:57.000Z,1018.12
2022-10-22T09:13:58.000Z,1018.18
2022-10-22T09:14:57.000Z,1018.13
2022-10-22T09:16:25.000Z,1018.16
2022-10-22T09:17:19.000Z,1018.16
2022-10-22T09:18:10.000Z,1018.14
2022-10-22T09:19:07.000Z,1018.21
2022-10-22T09:20:07.000Z,1018.19
2022-10-22T09:21:16.000Z,1018.22
2022-10-22T09:22:10.000Z,1018.20
2022-10-22T09:23:07.000Z,1018.22
2022-10-22T09:24:07.000Z,1018.24
2022-10-22T09:25:07.000Z,1018.21
2022-10-22T09:25:57.000Z,1018.25
2022-10-22T09:26:57.000Z,1018.22
2022-10-22T09:27:59.000Z,1018.21
2022-10-22T09:28:59.000Z,1018.25
2022-10-22T09:29:57.000Z,1018.24
2022-10-22T09:30:57.000Z,1018.24
2022-10-22T09:31:57.000Z,1018.19
2022-10-22T09:33:17.000Z,1018.22
2022-10-22T09:33:59.000Z,1018.22
2022-10-22T09:34:57.000Z,1018.22
2022-10-22T09:36:00.000Z,1018.23
2022-10-22T09:36:58.000Z,1018.26
2022-10-22T09:38:04.000Z,1018.22
2022-10-22T09:38:56.000Z,1018.25
2022-10-22T09:40:03.000Z,1018.21
2022-10-22T09:40:58.000Z,1018.21
2022-10-22T09:41:56.000Z,1018.21
2022-10-22T09:42:56.000Z,1018.25
2022-10-22T09:43:57.000Z,1018.21
2022-10-22T09:44:58.000Z,1018.21
2022-10-22T09:45:59.000Z,1018.23
2022-10-22T09:46:56.000Z,1018.24
2022-10-22T09:48:09.000Z,1018.27
2022-10-22T09:49:01.000Z,1018.29
2022-10-22T09:50:06.000Z,1018.28
2022-10-22T09:51:04.000Z,1018.36
2022-10-22T09:51:57.000Z,1018.34
2022-10-22T09:53:10.000Z,1018.33
2022-10-22T09:53:59.000Z,1018.33
2022-10-22T09:55:01.000Z,1018.32
2022-10-22T09:55:59.000Z,1018.33
2022-10-22T09:57:03.000Z,1018.31
2022-10-22T09:57:58.000Z,1018.31
2022-10-22T09:58:56.000Z,1018.32
2022-10-22T09:59:56.000Z,1018.31
2022-10-22T10:00:59.000Z,1018.34
2022-10-22T10:01:59.000Z,1018.38
2022-10-22T10:02:57.000Z,1018.35
2022-10-22T10:04:06.000Z,1018.36
2022-10-22T10:05:00.000Z,1018.41
2022-10-22T10:05:58.000Z,1018.42
2022-10-22T10:06:57.000Z,1018.44
2022-10-22T10:07:57.000Z,1018.38
2022-10-22T10:08:56.000Z,1018.44
2022-10-22T10:09:57.000Z,1018.43
2022-10-22T10:11:02.000Z,1018.41
2022-10-22T10:12:12.000Z,1018.45
2022-10-22T10:13:17.000Z,1018.42
2022-10-22T10:14:20.000Z,1018.43
2022-10-22T10:15:20.000Z,1018.43
2022-10-22T10:16:07.000Z,1018.44
2022-10-22T10:17:06.000Z,1018.43
2022-10-22T10:18:21.000Z,1018.41
2022-10-22T10:19:07.000Z,1018.39
2022-10-22T10:20:30.000Z,1018.36
2022-10-22T10:21:17.000Z,1018.39
2022-10-22T10:22:09.000Z,1018.38
2022-10-22T10:23:19.000Z,1018.43
2022-10-22T10:24:09.000Z,1018.43
2022-10-22T10:25:07.000Z,1018.47
2022-10-22T10:26:26.000Z,1018.49
2022-10-22T10:27:04.000Z,1018.41
2022-10-22T10:28:07.000Z,1018.43
2022-10-22T10:29:20.000Z,1018.43
2022-10-22T10:30:07.000Z,1018.43
2022-10-22T10:31:20.000Z,1018.37
2022-10-22T10:32:07.000Z,1018.40
2022-10-22T10:33:09.000Z,1018.38
2022-10-22T10:34:13.000Z,1018.45
2022-10-22T10:35:20.000Z,1018.43
2022-10-22T10:36:05.000Z,1018.46
2022-10-22T10:37:20.000Z,1018.47
2022-10-22T10:38:17.000Z,1018.53
2022-10-22T10:39:06.000Z,1018.49
2022-10-22T10:40:16.000Z,1018.51
2022-10-22T10:41:07.000Z,1018.49
2022-10-22T10:42:11.000Z,1018.46
2022-10-22T10:43:05.000Z,1018.44
2022-10-22T10:44:10.000Z,1018.45
2022-10-22T10:45:06.000Z,1018.42
2022-10-22T10:46:16.000Z,1018.44
2022-10-22T10:47:14.000Z,1018.38
2022-10-22T10:48:13.000Z,1018.37
2022-10-22T10:49:07.000Z,1018.37
2022-10-22T10:50:16.000Z,1018.36
2022-10-22T10:51:05.000Z,1018.35
2022-10-22T10:52:15.000Z,1018.40
2022-10-22T10:53:13.000Z,1018.38
2022-10-22T10:54:19.000Z,1018.38
2022-10-22T10:55:16.000Z,1018.41
2022-10-22T10:56:16.000Z,1018.41
2022-10-22T10:57:01.000Z,1018.37
2022-10-22T10:58:08.000Z,1018.37
2022-10-22T10:59:06.000Z,1018.40
2022-10-22T11:00:10.000Z,1018.35
2022-10-22T11:01:03.000Z,1018.35
2022-10-22T11:02:06.000Z,1018.36
2022-10-22T11:03:06.000Z,1018.33
2022-10-22T11:04:26.000Z,1018.38
2022-10-22T11:05:19.000Z,1018.31
2022-10-22T11:06:01.000Z,1018.32
2022-10-22T11:07:02.000Z,1018.33
2022-10-22T11:08:01.000Z,1018.28
2022-10-22T11:09:04.000Z,1018.33
2022-10-22T11:10:02.000Z,1018.30
2022-10-22T11:11:19.000Z,1018.27
2022-10-22T11:12:03.000Z,1018.29
2022-10-22T11:13:05.000Z,1018.27
2022-10-22T11:14:08.000Z,1018.28
2022-10-22T11:15:06.000Z,1018.28
2022-10-22T11:16:08.000Z,1018.24
2022-10-22T11:17:16.000Z,1018.22
2022-10-22T11:18:03.000Z,1018.18
2022-10-22T11:19:04.000Z,1018.19
2022-10-22T11:20:12.000Z,1018.22
2022-10-22T11:21:05.000Z,1018.23
2022-10-22T11:22:04.000Z,1018.22
2022-10-22T11:23:13.000Z,1018.20
2022-10-22T11:24:06.000Z,1018.19
2022-10-22T11:25:17.000Z,1018.19
2022-10-22T11:25:59.000Z,1018.20
2022-10-22T11:27:04.000Z,1018.16
2022-10-22T11:28:05.000Z,1018.17
2022-10-22T11:29:00.000Z,1018.15
2022-10-22T11:30:01.000Z,1018.07
2022-10-22T11:31:03.000Z,1018.10
2022-10-22T11:31:57.000Z,1018.09
2022-10-22T11:33:00.000Z,1018.11
2022-10-22T11:34:16.000Z,1018.10
2022-10-22T11:35:00.000Z,1018.11
2022-10-22T11:36:00.000Z,1018.14
2022-10-22T11:36:57.000Z,1018.18
2022-10-22T11:37:57.000Z,1018.20
2022-10-22T11:38:56.000Z,1018.22
2022-10-22T11:40:12.000Z,1018.22
2022-10-22T11:41:04.000Z,1018.20
2022-10-22T11:41:58.000Z,1018.19
2022-10-22T11:43:02.000Z,1018.17
2022-10-22T11:44:07.000Z,1018.19
2022-10-22T11:45:03.000Z,1018.22
2022-10-22T11:46:26.000Z,1018.21
2022-10-22T11:47:07.000Z,1018.21
2022-10-22T11:48:18.000Z,1018.18
2022-10-22T11:49:06.000Z,1018.19
2022-10-22T11:50:15.000Z,1018.15
2022-10-22T11:51:00.000Z,1018.17
2022-10-22T11:52:19.000Z,1018.16
2022-10-22T11:53:03.000Z,1018.19
2022-10-22T11:54:00.000Z,1018.17
2022-10-22T11:55:01.000Z,1018.19
2022-10-22T11:56:21.000Z,1018.16
2022-10-22T11:57:18.000Z,1018.18
2022-10-22T11:57:59.000Z,1018.18
2022-10-22T11:58:58.000Z,1018.14
2022-10-22T11:59:59.000Z,1018.15
2022-10-22T12:01:16.000Z,1018.10
2022-10-22T12:01:56.000Z,1018.10
2022-10-22T12:03:03.000Z,1018.05
2022-10-22T12:04:16.000Z,1018.09
2022-10-22T12:05:06.000Z,1018.04
2022-10-22T12:06:06.000Z,1018.04